sensor_id;sensor_type;location;lat;lon;timestamp;P1;durP1;ratioP1;P2;durP2;ratioP2
73154;SDS011;66341;52.418;7.382;2023-02-08T00:01:34;29.01;;;29.01;;
73154;SDS011;66341;52.418;7.382;2023-02-08T00:04:00;29.12;;;29.11;;
73154;SDS011;66341;52.418;7.382;2023-02-08T00:06:26;29.03;;;29.03;;
73154;SDS011;66341;52.418;7.382;2023-02-08T00:08:51;28.10;;;28.10;;
73154;SDS011;66341;52.418;7.382;2023-02-08T00:11:17;28.41;;;28.41;;
73154;SDS011;66341;52.418;7.382;2023-02-08T00:13:44;27.70;;;27.70;;
73154;SDS011;66341;52.418;7.382;2023-02-08T00:16:11;27.17;;;27.17;;
73154;SDS011;66341;52.418;7.382;2023-02-08T00:18:37;27.76;;;27.76;;
73154;SDS011;66341;52.418;7.382;2023-02-08T00:21:07;26.52;;;26.52;;
73154;SDS011;66341;52.418;7.382;2023-02-08T00:23:38;26.91;;;26.91;;
73154;SDS011;66341;52.418;7.382;2023-02-08T00:26:04;26.52;;;26.52;;
73154;SDS011;66341;52.418;7.382;2023-02-08T00:28:31;26.96;;;26.96;;
73154;SDS011;66341;52.418;7.382;2023-02-08T00:30:57;26.91;;;26.91;;
73154;SDS011;66341;52.418;7.382;2023-02-08T00:33:30;25.82;;;25.82;;
73154;SDS011;66341;52.418;7.382;2023-02-08T00:36:02;26.51;;;26.51;;
73154;SDS011;66341;52.418;7.382;2023-02-08T00:40:58;27.01;;;27.01;;
73154;SDS011;66341;52.418;7.382;2023-02-08T00:43:23;25.99;;;25.99;;
73154;SDS011;66341;52.418;7.382;2023-02-08T00:45:58;26.39;;;26.39;;
73154;SDS011;66341;52.418;7.382;2023-02-08T00:48:25;27.13;;;27.13;;
73154;SDS011;66341;52.418;7.382;2023-02-08T00:51:05;27.09;;;27.09;;
73154;SDS011;66341;52.418;7.382;2023-02-08T00:53:38;26.68;;;26.68;;
73154;SDS011;66341;52.418;7.382;2023-02-08T00:56:06;26.56;;;26.54;;
73154;SDS011;66341;52.418;7.382;2023-02-08T00:58:33;26.59;;;26.59;;
73154;SDS011;66341;52.418;7.382;2023-02-08T01:01:00;27.47;;;27.47;;
73154;SDS011;66341;52.418;7.382;2023-02-08T01:03:27;26.74;;;26.74;;
73154;SDS011;66341;52.418;7.382;2023-02-08T01:05:53;26.14;;;26.14;;
73154;SDS011;66341;52.418;7.382;2023-02-08T01:08:26;25.84;;;25.84;;
73154;SDS011;66341;52.418;7.382;2023-02-08T01:10:52;25.65;;;25.65;;
73154;SDS011;66341;52.418;7.382;2023-02-08T01:13:17;26.60;;;26.60;;
73154;SDS011;66341;52.418;7.382;2023-02-08T01:15:43;27.46;;;27.46;;
73154;SDS011;66341;52.418;7.382;2023-02-08T01:21:10;27.84;;;27.79;;
73154;SDS011;66341;52.418;7.382;2023-02-08T01:23:36;26.75;;;26.75;;
73154;SDS011;66341;52.418;7.382;2023-02-08T01:26:02;28.07;;;28.05;;
73154;SDS011;66341;52.418;7.382;2023-02-08T01:28:27;27.67;;;27.67;;
73154;SDS011;66341;52.418;7.382;2023-02-08T01:30:53;27.80;;;27.80;;
73154;SDS011;66341;52.418;7.382;2023-02-08T01:36:06;27.44;;;27.44;;
73154;SDS011;66341;52.418;7.382;2023-02-08T01:41:19;39.20;;;39.20;;
73154;SDS011;66341;52.418;7.382;2023-02-08T01:46:23;29.76;;;29.76;;
73154;SDS011;66341;52.418;7.382;2023-02-08T01:48:50;29.71;;;29.71;;
73154;SDS011;66341;52.418;7.382;2023-02-08T01:51:20;31.15;;;31.14;;
73154;SDS011;66341;52.418;7.382;2023-02-08T01:53:49;47.61;;;47.61;;
73154;SDS011;66341;52.418;7.382;2023-02-08T01:56:22;52.06;;;52.06;;
73154;SDS011;66341;52.418;7.382;2023-02-08T01:58:53;42.02;;;42.02;;
73154;SDS011;66341;52.418;7.382;2023-02-08T02:01:23;34.36;;;34.36;;
73154;SDS011;66341;52.418;7.382;2023-02-08T02:03:50;30.62;;;30.62;;
73154;SDS011;66341;52.418;7.382;2023-02-08T02:06:17;29.26;;;29.26;;
73154;SDS011;66341;52.418;7.382;2023-02-08T02:08:59;28.04;;;28.04;;
73154;SDS011;66341;52.418;7.382;2023-02-08T02:11:27;28.05;;;28.05;;
73154;SDS011;66341;52.418;7.382;2023-02-08T02:14:06;27.03;;;27.03;;
73154;SDS011;66341;52.418;7.382;2023-02-08T02:16:32;27.47;;;27.47;;
73154;SDS011;66341;52.418;7.382;2023-02-08T02:18:58;26.47;;;26.47;;
73154;SDS011;66341;52.418;7.382;2023-02-08T02:21:30;26.90;;;26.88;;
73154;SDS011;66341;52.418;7.382;2023-02-08T02:24:29;27.36;;;27.28;;
73154;SDS011;66341;52.418;7.382;2023-02-08T02:27:13;26.28;;;26.28;;
73154;SDS011;66341;52.418;7.382;2023-02-08T02:37:47;27.24;;;27.23;;
73154;SDS011;66341;52.418;7.382;2023-02-08T02:40:36;27.38;;;27.38;;
73154;SDS011;66341;52.418;7.382;2023-02-08T02:43:38;27.43;;;27.43;;
73154;SDS011;66341;52.418;7.382;2023-02-08T02:48:59;27.69;;;27.69;;
73154;SDS011;66341;52.418;7.382;2023-02-08T02:56:48;26.45;;;26.45;;
73154;SDS011;66341;52.418;7.382;2023-02-08T02:59:16;26.50;;;26.49;;
73154;SDS011;66341;52.418;7.382;2023-02-08T03:01:54;26.55;;;26.55;;
73154;SDS011;66341;52.418;7.382;2023-02-08T03:09:46;26.62;;;26.62;;
73154;SDS011;66341;52.418;7.382;2023-02-08T03:15:11;28.46;;;28.40;;
73154;SDS011;66341;52.418;7.382;2023-02-08T03:23:13;27.84;;;27.84;;
73154;SDS011;66341;52.418;7.382;2023-02-08T03:28:22;28.20;;;28.20;;
73154;SDS011;66341;52.418;7.382;2023-02-08T03:31:00;31.18;;;31.16;;
73154;SDS011;66341;52.418;7.382;2023-02-08T03:36:31;28.25;;;28.23;;
73154;SDS011;66341;52.418;7.382;2023-02-08T03:39:11;27.61;;;27.61;;
73154;SDS011;66341;52.418;7.382;2023-02-08T03:41:41;28.75;;;28.72;;
73154;SDS011;66341;52.418;7.382;2023-02-08T03:44:19;28.56;;;28.56;;
73154;SDS011;66341;52.418;7.382;2023-02-08T03:46:51;29.76;;;29.76;;
73154;SDS011;66341;52.418;7.382;2023-02-08T03:49:36;27.69;;;27.69;;
73154;SDS011;66341;52.418;7.382;2023-02-08T03:52:05;28.64;;;28.64;;
73154;SDS011;66341;52.418;7.382;2023-02-08T03:54:34;28.18;;;28.18;;
73154;SDS011;66341;52.418;7.382;2023-02-08T03:59:36;27.30;;;27.28;;
73154;SDS011;66341;52.418;7.382;2023-02-08T04:02:09;27.30;;;27.30;;
73154;SDS011;66341;52.418;7.382;2023-02-08T04:04:39;28.04;;;28.03;;
73154;SDS011;66341;52.418;7.382;2023-02-08T04:07:13;27.73;;;27.73;;
73154;SDS011;66341;52.418;7.382;2023-02-08T04:09:40;27.92;;;27.92;;
73154;SDS011;66341;52.418;7.382;2023-02-08T04:15:09;27.45;;;27.45;;
73154;SDS011;66341;52.418;7.382;2023-02-08T04:17:36;27.53;;;27.53;;
73154;SDS011;66341;52.418;7.382;2023-02-08T04:20:02;28.35;;;28.30;;
73154;SDS011;66341;52.418;7.382;2023-02-08T04:22:28;28.21;;;28.21;;
73154;SDS011;66341;52.418;7.382;2023-02-08T04:24:54;28.96;;;28.96;;
73154;SDS011;66341;52.418;7.382;2023-02-08T04:27:27;28.41;;;28.38;;
73154;SDS011;66341;52.418;7.382;2023-02-08T04:29:53;27.16;;;27.11;;
73154;SDS011;66341;52.418;7.382;2023-02-08T04:32:23;28.12;;;28.11;;
73154;SDS011;66341;52.418;7.382;2023-02-08T04:34:49;27.23;;;27.21;;
73154;SDS011;66341;52.418;7.382;2023-02-08T04:37:28;26.64;;;26.64;;
73154;SDS011;66341;52.418;7.382;2023-02-08T04:39:54;25.70;;;25.68;;
73154;SDS011;66341;52.418;7.382;2023-02-08T04:45:14;26.21;;;26.21;;
73154;SDS011;66341;52.418;7.382;2023-02-08T04:47:53;25.58;;;25.58;;
73154;SDS011;66341;52.418;7.382;2023-02-08T04:50:19;25.02;;;25.02;;
73154;SDS011;66341;52.418;7.382;2023-02-08T04:52:48;26.53;;;26.44;;
73154;SDS011;66341;52.418;7.382;2023-02-08T04:55:15;26.01;;;26.01;;
73154;SDS011;66341;52.418;7.382;2023-02-08T05:00:20;26.28;;;26.24;;
73154;SDS011;66341;52.418;7.382;2023-02-08T05:02:45;25.83;;;25.82;;
73154;SDS011;66341;52.418;7.382;2023-02-08T05:05:18;25.55;;;25.55;;
73154;SDS011;66341;52.418;7.382;2023-02-08T05:07:44;27.19;;;27.17;;
73154;SDS011;66341;52.418;7.382;2023-02-08T05:10:22;27.53;;;27.52;;
73154;SDS011;66341;52.418;7.382;2023-02-08T05:12:47;26.67;;;26.67;;
73154;SDS011;66341;52.418;7.382;2023-02-08T05:15:12;25.80;;;25.80;;
73154;SDS011;66341;52.418;7.382;2023-02-08T05:17:40;24.92;;;24.92;;
73154;SDS011;66341;52.418;7.382;2023-02-08T05:20:05;25.61;;;25.60;;
73154;SDS011;66341;52.418;7.382;2023-02-08T05:22:32;26.26;;;26.26;;
73154;SDS011;66341;52.418;7.382;2023-02-08T05:25:03;26.83;;;26.83;;
73154;SDS011;66341;52.418;7.382;2023-02-08T05:27:30;26.25;;;26.23;;
73154;SDS011;66341;52.418;7.382;2023-02-08T05:29:57;26.22;;;26.22;;
73154;SDS011;66341;52.418;7.382;2023-02-08T05:32:25;25.99;;;25.96;;
73154;SDS011;66341;52.418;7.382;2023-02-08T05:34:51;26.87;;;26.83;;
73154;SDS011;66341;52.418;7.382;2023-02-08T05:37:23;27.96;;;27.96;;
73154;SDS011;66341;52.418;7.382;2023-02-08T05:39:52;28.13;;;28.13;;
73154;SDS011;66341;52.418;7.382;2023-02-08T05:42:25;27.78;;;27.77;;
73154;SDS011;66341;52.418;7.382;2023-02-08T05:44:51;28.38;;;28.38;;
73154;SDS011;66341;52.418;7.382;2023-02-08T05:47:19;26.52;;;26.52;;
73154;SDS011;66341;52.418;7.382;2023-02-08T05:49:46;28.11;;;28.09;;
73154;SDS011;66341;52.418;7.382;2023-02-08T05:52:11;29.24;;;29.22;;
73154;SDS011;66341;52.418;7.382;2023-02-08T05:54:37;28.90;;;28.89;;
73154;SDS011;66341;52.418;7.382;2023-02-08T05:59:54;27.84;;;27.84;;
73154;SDS011;66341;52.418;7.382;2023-02-08T06:02:20;27.74;;;27.74;;
73154;SDS011;66341;52.418;7.382;2023-02-08T06:07:21;30.07;;;30.01;;
73154;SDS011;66341;52.418;7.382;2023-02-08T06:10:02;28.85;;;28.81;;
73154;SDS011;66341;52.418;7.382;2023-02-08T06:12:28;28.08;;;28.08;;
73154;SDS011;66341;52.418;7.382;2023-02-08T06:14:54;28.97;;;28.91;;
73154;SDS011;66341;52.418;7.382;2023-02-08T06:17:30;29.82;;;29.72;;
73154;SDS011;66341;52.418;7.382;2023-02-08T06:19:56;31.39;;;31.39;;
73154;SDS011;66341;52.418;7.382;2023-02-08T06:22:21;31.59;;;31.53;;
73154;SDS011;66341;52.418;7.382;2023-02-08T06:24:47;31.34;;;31.34;;
73154;SDS011;66341;52.418;7.382;2023-02-08T06:27:20;30.32;;;30.26;;
73154;SDS011;66341;52.418;7.382;2023-02-08T06:29:46;29.06;;;29.02;;
73154;SDS011;66341;52.418;7.382;2023-02-08T06:34:53;28.78;;;28.71;;
73154;SDS011;66341;52.418;7.382;2023-02-08T06:37:19;28.45;;;28.43;;
73154;SDS011;66341;52.418;7.382;2023-02-08T06:39:44;28.19;;;28.06;;
73154;SDS011;66341;52.418;7.382;2023-02-08T06:42:29;28.64;;;28.55;;
73154;SDS011;66341;52.418;7.382;2023-02-08T06:44:54;28.42;;;28.38;;
73154;SDS011;66341;52.418;7.382;2023-02-08T06:47:25;29.53;;;29.51;;
73154;SDS011;66341;52.418;7.382;2023-02-08T06:49:51;29.03;;;28.99;;
73154;SDS011;66341;52.418;7.382;2023-02-08T06:52:28;29.98;;;29.62;;
73154;SDS011;66341;52.418;7.382;2023-02-08T06:54:54;29.14;;;29.08;;
73154;SDS011;66341;52.418;7.382;2023-02-08T07:00:14;28.99;;;28.98;;
73154;SDS011;66341;52.418;7.382;2023-02-08T07:02:52;28.10;;;28.10;;
73154;SDS011;66341;52.418;7.382;2023-02-08T07:05:18;28.07;;;28.05;;
73154;SDS011;66341;52.418;7.382;2023-02-08T07:07:43;28.22;;;28.09;;
73154;SDS011;66341;52.418;7.382;2023-02-08T07:10:09;27.68;;;27.55;;
73154;SDS011;66341;52.418;7.382;2023-02-08T07:12:35;28.06;;;28.01;;
73154;SDS011;66341;52.418;7.382;2023-02-08T07:15:01;28.82;;;28.77;;
73154;SDS011;66341;52.418;7.382;2023-02-08T07:17:27;28.90;;;28.83;;
73154;SDS011;66341;52.418;7.382;2023-02-08T07:20:02;28.57;;;28.52;;
73154;SDS011;66341;52.418;7.382;2023-02-08T07:22:29;28.70;;;28.69;;
73154;SDS011;66341;52.418;7.382;2023-02-08T07:24:55;28.12;;;28.12;;
73154;SDS011;66341;52.418;7.382;2023-02-08T07:27:22;27.96;;;27.93;;
73154;SDS011;66341;52.418;7.382;2023-02-08T07:29:48;28.22;;;28.21;;
73154;SDS011;66341;52.418;7.382;2023-02-08T07:32:13;28.67;;;28.64;;
73154;SDS011;66341;52.418;7.382;2023-02-08T07:34:39;29.19;;;29.19;;
73154;SDS011;66341;52.418;7.382;2023-02-08T07:37:05;31.24;;;31.20;;
73154;SDS011;66341;52.418;7.382;2023-02-08T07:39:31;32.52;;;32.45;;
73154;SDS011;66341;52.418;7.382;2023-02-08T07:41:56;32.33;;;32.32;;
73154;SDS011;66341;52.418;7.382;2023-02-08T07:44:22;32.66;;;32.54;;
73154;SDS011;66341;52.418;7.382;2023-02-08T07:46:47;32.02;;;31.93;;
73154;SDS011;66341;52.418;7.382;2023-02-08T07:49:13;32.54;;;32.51;;
73154;SDS011;66341;52.418;7.382;2023-02-08T07:51:40;33.17;;;33.16;;
73154;SDS011;66341;52.418;7.382;2023-02-08T07:54:07;33.32;;;33.32;;
73154;SDS011;66341;52.418;7.382;2023-02-08T07:56:33;31.46;;;31.45;;
73154;SDS011;66341;52.418;7.382;2023-02-08T07:59:00;30.83;;;30.82;;
73154;SDS011;66341;52.418;7.382;2023-02-08T08:01:26;31.42;;;31.41;;
73154;SDS011;66341;52.418;7.382;2023-02-08T08:04:07;31.73;;;31.73;;
73154;SDS011;66341;52.418;7.382;2023-02-08T08:06:32;31.78;;;31.76;;
73154;SDS011;66341;52.418;7.382;2023-02-08T08:09:00;32.04;;;32.00;;
73154;SDS011;66341;52.418;7.382;2023-02-08T08:11:26;31.04;;;30.94;;
73154;SDS011;66341;52.418;7.382;2023-02-08T08:13:52;30.65;;;30.52;;
73154;SDS011;66341;52.418;7.382;2023-02-08T08:16:17;31.98;;;31.95;;
73154;SDS011;66341;52.418;7.382;2023-02-08T08:18:44;32.29;;;32.29;;
73154;SDS011;66341;52.418;7.382;2023-02-08T08:21:11;29.89;;;29.89;;
73154;SDS011;66341;52.418;7.382;2023-02-08T08:23:36;30.25;;;30.23;;
73154;SDS011;66341;52.418;7.382;2023-02-08T08:26:06;31.55;;;31.35;;
73154;SDS011;66341;52.418;7.382;2023-02-08T08:31:07;31.87;;;31.87;;
73154;SDS011;66341;52.418;7.382;2023-02-08T08:33:39;32.02;;;31.86;;
73154;SDS011;66341;52.418;7.382;2023-02-08T08:36:06;31.04;;;30.89;;
73154;SDS011;66341;52.418;7.382;2023-02-08T08:38:50;31.31;;;31.27;;
73154;SDS011;66341;52.418;7.382;2023-02-08T08:41:16;31.52;;;31.47;;
73154;SDS011;66341;52.418;7.382;2023-02-08T08:43:43;31.80;;;31.73;;
73154;SDS011;66341;52.418;7.382;2023-02-08T08:46:22;32.36;;;32.36;;
73154;SDS011;66341;52.418;7.382;2023-02-08T08:51:33;32.55;;;32.47;;
73154;SDS011;66341;52.418;7.382;2023-02-08T08:54:00;30.74;;;30.73;;
73154;SDS011;66341;52.418;7.382;2023-02-08T08:56:26;29.15;;;29.15;;
73154;SDS011;66341;52.418;7.382;2023-02-08T09:01:55;28.08;;;28.07;;
73154;SDS011;66341;52.418;7.382;2023-02-08T09:04:21;27.09;;;27.09;;
73154;SDS011;66341;52.418;7.382;2023-02-08T09:06:48;26.75;;;26.74;;
73154;SDS011;66341;52.418;7.382;2023-02-08T09:09:14;27.04;;;27.04;;
73154;SDS011;66341;52.418;7.382;2023-02-08T09:11:39;27.49;;;27.47;;
73154;SDS011;66341;52.418;7.382;2023-02-08T09:14:07;26.58;;;26.54;;
73154;SDS011;66341;52.418;7.382;2023-02-08T09:16:36;26.17;;;26.14;;
73154;SDS011;66341;52.418;7.382;2023-02-08T09:19:05;26.17;;;26.17;;
73154;SDS011;66341;52.418;7.382;2023-02-08T09:21:32;24.76;;;24.74;;
73154;SDS011;66341;52.418;7.382;2023-02-08T09:26:31;24.83;;;24.83;;
73154;SDS011;66341;52.418;7.382;2023-02-08T09:28:57;24.69;;;24.69;;
73154;SDS011;66341;52.418;7.382;2023-02-08T09:31:24;24.83;;;24.81;;
73154;SDS011;66341;52.418;7.382;2023-02-08T09:33:52;25.14;;;25.14;;
73154;SDS011;66341;52.418;7.382;2023-02-08T09:36:18;24.88;;;24.88;;
73154;SDS011;66341;52.418;7.382;2023-02-08T09:38:48;24.96;;;24.95;;
73154;SDS011;66341;52.418;7.382;2023-02-08T09:46:35;24.34;;;24.34;;
73154;SDS011;66341;52.418;7.382;2023-02-08T09:49:04;24.26;;;24.26;;
73154;SDS011;66341;52.418;7.382;2023-02-08T09:51:36;24.54;;;24.54;;
73154;SDS011;66341;52.418;7.382;2023-02-08T09:57:23;23.71;;;23.71;;
73154;SDS011;66341;52.418;7.382;2023-02-08T09:59:55;23.49;;;23.49;;
73154;SDS011;66341;52.418;7.382;2023-02-08T10:02:43;23.16;;;23.15;;
73154;SDS011;66341;52.418;7.382;2023-02-08T10:05:15;22.76;;;22.74;;
73154;SDS011;66341;52.418;7.382;2023-02-08T10:07:44;22.08;;;22.01;;
73154;SDS011;66341;52.418;7.382;2023-02-08T10:15:19;20.00;;;20.00;;
73154;SDS011;66341;52.418;7.382;2023-02-08T10:20:32;18.81;;;18.77;;
73154;SDS011;66341;52.418;7.382;2023-02-08T10:30:59;18.88;;;18.88;;
73154;SDS011;66341;52.418;7.382;2023-02-08T10:38:40;16.78;;;16.76;;
73154;SDS011;66341;52.418;7.382;2023-02-08T10:41:05;16.07;;;15.96;;
73154;SDS011;66341;52.418;7.382;2023-02-08T10:43:39;15.91;;;15.91;;
73154;SDS011;66341;52.418;7.382;2023-02-08T10:51:17;13.73;;;13.73;;
73154;SDS011;66341;52.418;7.382;2023-02-08T10:53:53;19.62;;;19.62;;
73154;SDS011;66341;52.418;7.382;2023-02-08T10:58:46;16.82;;;16.82;;
73154;SDS011;66341;52.418;7.382;2023-02-08T11:01:22;13.82;;;13.82;;
73154;SDS011;66341;52.418;7.382;2023-02-08T11:06:29;12.25;;;12.25;;
73154;SDS011;66341;52.418;7.382;2023-02-08T11:08:55;12.51;;;12.48;;
73154;SDS011;66341;52.418;7.382;2023-02-08T11:11:23;13.58;;;13.58;;
73154;SDS011;66341;52.418;7.382;2023-02-08T11:13:51;12.32;;;12.32;;
73154;SDS011;66341;52.418;7.382;2023-02-08T11:16:29;11.54;;;11.54;;
73154;SDS011;66341;52.418;7.382;2023-02-08T11:18:57;11.80;;;11.80;;
73154;SDS011;66341;52.418;7.382;2023-02-08T11:26:41;10.38;;;10.38;;
73154;SDS011;66341;52.418;7.382;2023-02-08T11:34:37;10.13;;;10.13;;
73154;SDS011;66341;52.418;7.382;2023-02-08T11:37:14;10.31;;;10.30;;
73154;SDS011;66341;52.418;7.382;2023-02-08T11:39:57;9.97;;;9.97;;
73154;SDS011;66341;52.418;7.382;2023-02-08T11:42:28;9.76;;;9.76;;
73154;SDS011;66341;52.418;7.382;2023-02-08T11:45:01;10.00;;;10.00;;
73154;SDS011;66341;52.418;7.382;2023-02-08T11:47:29;9.40;;;9.40;;
73154;SDS011;66341;52.418;7.382;2023-02-08T11:50:16;8.51;;;8.51;;
73154;SDS011;66341;52.418;7.382;2023-02-08T11:52:48;8.74;;;8.74;;
73154;SDS011;66341;52.418;7.382;2023-02-08T12:00:46;8.31;;;8.31;;
73154;SDS011;66341;52.418;7.382;2023-02-08T12:03:42;8.13;;;8.13;;
73154;SDS011;66341;52.418;7.382;2023-02-08T12:11:53;8.22;;;8.22;;
73154;SDS011;66341;52.418;7.382;2023-02-08T12:17:53;8.55;;;8.55;;
73154;SDS011;66341;52.418;7.382;2023-02-08T12:22:42;7.81;;;7.81;;
73154;SDS011;66341;52.418;7.382;2023-02-08T12:25:38;7.90;;;7.90;;
73154;SDS011;66341;52.418;7.382;2023-02-08T12:28:19;8.83;;;8.83;;
73154;SDS011;66341;52.418;7.382;2023-02-08T12:49:44;7.63;;;7.63;;
73154;SDS011;66341;52.418;7.382;2023-02-08T12:52:46;7.89;;;7.89;;
73154;SDS011;66341;52.418;7.382;2023-02-08T12:57:49;7.66;;;7.66;;
73154;SDS011;66341;52.418;7.382;2023-02-08T13:05:22;7.37;;;7.37;;
73154;SDS011;66341;52.418;7.382;2023-02-08T13:10:47;7.07;;;7.06;;
73154;SDS011;66341;52.418;7.382;2023-02-08T13:13:34;6.72;;;6.71;;
73154;SDS011;66341;52.418;7.382;2023-02-08T13:16:20;6.93;;;6.88;;
73154;SDS011;66341;52.418;7.382;2023-02-08T13:19:06;6.92;;;6.92;;
73154;SDS011;66341;52.418;7.382;2023-02-08T13:21:40;7.60;;;7.60;;
73154;SDS011;66341;52.418;7.382;2023-02-08T13:26:52;7.54;;;7.54;;
73154;SDS011;66341;52.418;7.382;2023-02-08T13:31:49;7.16;;;7.16;;
73154;SDS011;66341;52.418;7.382;2023-02-08T13:36:49;7.06;;;7.06;;
73154;SDS011;66341;52.418;7.382;2023-02-08T13:39:41;7.09;;;7.09;;
73154;SDS011;66341;52.418;7.382;2023-02-08T13:44:51;7.02;;;7.02;;
73154;SDS011;66341;52.418;7.382;2023-02-08T13:47:31;7.25;;;7.25;;
73154;SDS011;66341;52.418;7.382;2023-02-08T13:50:00;6.96;;;6.96;;
73154;SDS011;66341;52.418;7.382;2023-02-08T13:57:53;6.93;;;6.93;;
73154;SDS011;66341;52.418;7.382;2023-02-08T14:02:59;9.09;;;9.09;;
73154;SDS011;66341;52.418;7.382;2023-02-08T14:05:33;8.08;;;8.07;;
73154;SDS011;66341;52.418;7.382;2023-02-08T14:08:06;8.02;;;8.00;;
73154;SDS011;66341;52.418;7.382;2023-02-08T14:13:44;7.34;;;7.34;;
73154;SDS011;66341;52.418;7.382;2023-02-08T14:19:01;6.88;;;6.88;;
73154;SDS011;66341;52.418;7.382;2023-02-08T14:21:42;6.87;;;6.86;;
73154;SDS011;66341;52.418;7.382;2023-02-08T14:24:21;6.75;;;6.75;;
73154;SDS011;66341;52.418;7.382;2023-02-08T14:26:50;7.08;;;7.08;;
73154;SDS011;66341;52.418;7.382;2023-02-08T14:29:31;7.06;;;7.06;;
73154;SDS011;66341;52.418;7.382;2023-02-08T14:31:57;7.20;;;7.20;;
73154;SDS011;66341;52.418;7.382;2023-02-08T14:34:28;7.77;;;7.77;;
73154;SDS011;66341;52.418;7.382;2023-02-08T14:36:58;8.09;;;8.09;;
73154;SDS011;66341;52.418;7.382;2023-02-08T14:39:28;8.15;;;8.15;;
73154;SDS011;66341;52.418;7.382;2023-02-08T14:41:58;7.62;;;7.62;;
73154;SDS011;66341;52.418;7.382;2023-02-08T14:47:12;6.99;;;6.99;;
73154;SDS011;66341;52.418;7.382;2023-02-08T14:49:42;6.80;;;6.80;;
73154;SDS011;66341;52.418;7.382;2023-02-08T14:52:19;7.65;;;7.65;;
73154;SDS011;66341;52.418;7.382;2023-02-08T14:59:51;8.84;;;8.84;;
73154;SDS011;66341;52.418;7.382;2023-02-08T15:02:21;7.91;;;7.91;;
73154;SDS011;66341;52.418;7.382;2023-02-08T15:05:27;9.22;;;9.22;;
73154;SDS011;66341;52.418;7.382;2023-02-08T15:07:56;7.88;;;7.88;;
73154;SDS011;66341;52.418;7.382;2023-02-08T15:10:27;9.28;;;9.28;;
73154;SDS011;66341;52.418;7.382;2023-02-08T15:15:36;8.05;;;8.05;;
73154;SDS011;66341;52.418;7.382;2023-02-08T15:18:05;8.16;;;8.16;;
73154;SDS011;66341;52.418;7.382;2023-02-08T15:23:33;7.13;;;7.13;;
73154;SDS011;66341;52.418;7.382;2023-02-08T15:31:51;7.00;;;7.00;;
73154;SDS011;66341;52.418;7.382;2023-02-08T15:34:23;6.56;;;6.56;;
73154;SDS011;66341;52.418;7.382;2023-02-08T15:36:50;6.58;;;6.58;;
73154;SDS011;66341;52.418;7.382;2023-02-08T15:42:14;6.69;;;6.69;;
73154;SDS011;66341;52.418;7.382;2023-02-08T15:44:41;6.92;;;6.92;;
73154;SDS011;66341;52.418;7.382;2023-02-08T15:50:06;6.69;;;6.69;;
73154;SDS011;66341;52.418;7.382;2023-02-08T15:52:41;6.81;;;6.81;;
73154;SDS011;66341;52.418;7.382;2023-02-08T15:55:24;7.06;;;7.06;;
73154;SDS011;66341;52.418;7.382;2023-02-08T15:58:04;6.50;;;6.50;;
73154;SDS011;66341;52.418;7.382;2023-02-08T16:03:17;6.49;;;6.49;;
73154;SDS011;66341;52.418;7.382;2023-02-08T16:08:22;6.56;;;6.56;;
73154;SDS011;66341;52.418;7.382;2023-02-08T16:18:57;6.16;;;6.16;;
73154;SDS011;66341;52.418;7.382;2023-02-08T16:26:45;6.45;;;6.45;;
73154;SDS011;66341;52.418;7.382;2023-02-08T16:29:16;6.79;;;6.79;;
73154;SDS011;66341;52.418;7.382;2023-02-08T16:31:47;7.10;;;7.10;;
73154;SDS011;66341;52.418;7.382;2023-02-08T16:34:20;7.58;;;7.58;;
73154;SDS011;66341;52.418;7.382;2023-02-08T16:36:48;7.61;;;7.61;;
73154;SDS011;66341;52.418;7.382;2023-02-08T16:44:28;7.81;;;7.81;;
73154;SDS011;66341;52.418;7.382;2023-02-08T16:46:55;7.76;;;7.76;;
73154;SDS011;66341;52.418;7.382;2023-02-08T16:49:28;7.95;;;7.95;;
73154;SDS011;66341;52.418;7.382;2023-02-08T16:51:57;8.50;;;8.50;;
73154;SDS011;66341;52.418;7.382;2023-02-08T16:54:29;9.31;;;9.31;;
73154;SDS011;66341;52.418;7.382;2023-02-08T16:56:56;9.48;;;9.48;;
73154;SDS011;66341;52.418;7.382;2023-02-08T16:59:30;9.10;;;9.10;;
73154;SDS011;66341;52.418;7.382;2023-02-08T17:01:56;9.49;;;9.49;;
73154;SDS011;66341;52.418;7.382;2023-02-08T17:04:24;9.66;;;9.66;;
73154;SDS011;66341;52.418;7.382;2023-02-08T17:06:49;9.85;;;9.85;;
73154;SDS011;66341;52.418;7.382;2023-02-08T17:09:19;9.98;;;9.98;;
73154;SDS011;66341;52.418;7.382;2023-02-08T17:11:44;9.79;;;9.79;;
73154;SDS011;66341;52.418;7.382;2023-02-08T17:14:10;8.97;;;8.97;;
73154;SDS011;66341;52.418;7.382;2023-02-08T17:16:36;7.95;;;7.95;;
73154;SDS011;66341;52.418;7.382;2023-02-08T17:19:03;8.26;;;8.26;;
73154;SDS011;66341;52.418;7.382;2023-02-08T17:21:29;8.65;;;8.64;;
73154;SDS011;66341;52.418;7.382;2023-02-08T17:26:28;9.17;;;9.17;;
73154;SDS011;66341;52.418;7.382;2023-02-08T17:28:58;9.41;;;9.41;;
73154;SDS011;66341;52.418;7.382;2023-02-08T17:31:24;8.66;;;8.66;;
73154;SDS011;66341;52.418;7.382;2023-02-08T17:34:05;8.84;;;8.84;;
73154;SDS011;66341;52.418;7.382;2023-02-08T17:36:34;8.95;;;8.95;;
73154;SDS011;66341;52.418;7.382;2023-02-08T17:39:12;8.46;;;8.46;;
73154;SDS011;66341;52.418;7.382;2023-02-08T17:41:41;8.62;;;8.62;;
73154;SDS011;66341;52.418;7.382;2023-02-08T17:46:43;10.55;;;10.55;;
73154;SDS011;66341;52.418;7.382;2023-02-08T17:49:09;9.24;;;9.24;;
73154;SDS011;66341;52.418;7.382;2023-02-08T17:51:35;10.38;;;10.38;;
73154;SDS011;66341;52.418;7.382;2023-02-08T17:54:04;11.85;;;11.85;;
73154;SDS011;66341;52.418;7.382;2023-02-08T17:56:29;11.59;;;11.59;;
73154;SDS011;66341;52.418;7.382;2023-02-08T17:58:59;10.61;;;10.61;;
73154;SDS011;66341;52.418;7.382;2023-02-08T18:01:34;9.76;;;9.76;;
73154;SDS011;66341;52.418;7.382;2023-02-08T18:04:00;8.51;;;8.51;;
73154;SDS011;66341;52.418;7.382;2023-02-08T18:06:36;8.78;;;8.78;;
73154;SDS011;66341;52.418;7.382;2023-02-08T18:09:02;8.93;;;8.93;;
73154;SDS011;66341;52.418;7.382;2023-02-08T18:11:31;8.98;;;8.98;;
73154;SDS011;66341;52.418;7.382;2023-02-08T18:13:58;8.50;;;8.50;;
73154;SDS011;66341;52.418;7.382;2023-02-08T18:16:25;7.89;;;7.89;;
73154;SDS011;66341;52.418;7.382;2023-02-08T18:21:24;6.96;;;6.96;;
73154;SDS011;66341;52.418;7.382;2023-02-08T18:23:51;6.97;;;6.97;;
73154;SDS011;66341;52.418;7.382;2023-02-08T18:26:21;6.45;;;6.45;;
73154;SDS011;66341;52.418;7.382;2023-02-08T18:31:56;6.53;;;6.53;;
73154;SDS011;66341;52.418;7.382;2023-02-08T18:34:22;6.49;;;6.49;;
73154;SDS011;66341;52.418;7.382;2023-02-08T18:36:47;6.82;;;6.82;;
73154;SDS011;66341;52.418;7.382;2023-02-08T18:39:13;6.89;;;6.89;;
73154;SDS011;66341;52.418;7.382;2023-02-08T18:41:42;6.73;;;6.73;;
73154;SDS011;66341;52.418;7.382;2023-02-08T18:44:08;7.21;;;7.21;;
73154;SDS011;66341;52.418;7.382;2023-02-08T18:46:46;8.02;;;8.02;;
73154;SDS011;66341;52.418;7.382;2023-02-08T18:49:14;7.80;;;7.80;;
73154;SDS011;66341;52.418;7.382;2023-02-08T18:51:44;7.05;;;7.05;;
73154;SDS011;66341;52.418;7.382;2023-02-08T18:54:18;6.96;;;6.96;;
73154;SDS011;66341;52.418;7.382;2023-02-08T18:56:44;7.06;;;7.06;;
73154;SDS011;66341;52.418;7.382;2023-02-08T19:02:09;8.57;;;8.57;;
73154;SDS011;66341;52.418;7.382;2023-02-08T19:04:42;8.42;;;8.42;;
73154;SDS011;66341;52.418;7.382;2023-02-08T19:07:08;8.27;;;8.27;;
73154;SDS011;66341;52.418;7.382;2023-02-08T19:09:34;8.81;;;8.81;;
73154;SDS011;66341;52.418;7.382;2023-02-08T19:12:00;9.31;;;9.31;;
73154;SDS011;66341;52.418;7.382;2023-02-08T19:14:27;9.18;;;9.18;;